Terminal Aerodrome Forecast
Issued by NWS

Home | Current Version | Previous Version | Text Only | Print | Product List | Glossary On
Versions: 1 2 3 4 5 6 7 8 9 10 11 12
938
FTUS43 KSGF 110524
TAFJLN
TAF
KJLN 110524Z 1106/1206 18013G20KT P6SM OVC030 WS020/20040KT
     FM111300 18014G23KT P6SM BKN025 OVC040
     FM111700 20013KT 6SM -DZ BR SCT007 OVC015
     FM112100 31010KT 6SM BR BKN007 OVC015=

USA.gov is the U.S. government's official web portal to all federal, state and local government web resources and services.